cliquez pour ajouter le site Runraid à vos favoris  English version (google)  Retour à l'accueil Ecrire à l'auteur du site Runraid : Michel Jourdan



Les prochaines courses


Les derniers résultats

cliquez pour visualiser la page complète relatant la chronologie des éruptions du Piton de la Fournaise
éruptions Piton de la Fournaise


Ile de La Réunion

 Diagonale des Fous 

Ecrire au créateur du site : Michel Jourdan
Contact


2016-05-15 - Course du Géranium - Championnat Montagne Réunion 7,5km

Pour consulter le palmarès d'un coureur, un clic sur son nom !

Vous avez des remarques, corrections, ... sur ces résultats , un clic sur --> pour me transmettre toute information concernant les classements


Course du Géranium - Championnat Montagne Réunion 7,5km - 2016 : classement des 107 finishers
Place Nom Temps Cat. Club Sexe Clt/cat.
Place Nom Temps Cat. Club Sexe Clt/cat.
1 ISSARAMBE REFANE SEBASTIEN 00:46:01 JUM CASL M 1 JUM 193
2 CELESTE FABIEN 00:47:08 JUM TCSA M 2 JUM 339
3 ISSARAMBE REFANE OLIVIER 00:48:01 CAM CASL M 1 CAM 192
4 NEDELEC CLAIRE 00:48:57 SEF ACED F 1ere F - Championne 2016 63
5 RAMIN MAEL 00:50:15 CAM ACSAL M 2 CAM 60
6 Clain Raphael 00:51:41 CAM CASM M 3 CAM 759
7 PAYET ANTOINE 00:52:10 JUM CAPP M 3 JUM 111
8 RIVIERE JULIE 00:52:17 SEF DA F 2eme F 271
9 IVARA JOHNNY 00:54:04 CAM - M 4 CAM 729
10 CASTAGNET TOM 00:54:21 JUM BNA M 4 JUM 76
11 LALLEMAND ANTHONY 00:54:51 JUM CASL M 5 JUM 195
12 HOARAU THEO JULES 00:55:13 CAM TCSA M 5 CAM 341
13 PERCHERON NATHALIE 00:55:18 SEF CAPC F 3eme F 121
14 RAMAYE ALEXANDRE 00:56:49 CAM BDN RUNING M 6 CAM 69
15 MAILLOT WILLIAM 00:56:54 CAM CASL M 7 CAM 199
16 CAZANOVE CEDRIC 00:57:04 CAM OUESTRAIL M 8 CAM 280
17 BLANDIE ALEXIA 00:57:13 SEF COSPI F 4eme F 216
18 METRO Emma 00:57:22 SEF - F 5eme F 572
19 VADIVELOU Marie AUGUSTINE 00:58:01 SEF COSPI F 6eme F 738
20 SMITH JOHANNA 00:58:23 SEF CASL F 7eme F 210
21 HOARAU CLARISSE 00:58:39 V1F DA F 8eme F / 1 V1F 265
22 WINTERS Victor 00:58:57 CAM - M 9 CAM 681
23 PLANTE Marie Anais 00:59:18 SEF RCSD F 9eme F / 8 SEF 317
24 CALPETARD MARIE SANDRINE 00:59:41 SEF DA F 10eme F / 9 SEF 259
25 PIERY EKATERINA 00:59:56 V1F ACSP F 11eme F / 2 V1F 48
26 GONTHIER SAMUEL 01:00:14 CAM CASL M 10 CAM 187
27 DUBART kevin 01:00:14 JUM - M 6 JUM 442
28 TROUVE MARIE 01:01:01 SEF AC ST-LEU F 12eme F / 10 SEF 68
29 GARA ESTEBAN 01:01:22 JUM RCSD M 7 JUM 735
30 Pierre Agnes 01:01:23 V1F ACSP F 13eme F / 3 V1F 755
31 CONNAN MARIE THERESE 01:01:59 V3F BNA F 14eme F / 1 V3F 78
32 BARDIER REZA 01:02:25 CAM CAPOSS M 11 CAM 126
33 LEBON DOMINIQUE 01:02:44 V2F DA F 15eme F / 1 V2F 267
34 WINTERS Maxence 01:03:16 CAM - M 12 CAM 680
35 Badre Gabriel 01:03:38 JUM CAPP M 8 JUM 687
36 CHAGNAUD JUSTINE 01:04:24 CAF ACSP F 16eme F / 1 CAF 26
37 MOAN STEPHANIE MARIE 01:04:48 V1F CASL F 17eme F / 4 V1F 200
38 JEANDEMANGE LAURE 01:04:48 SEF CASL F 18eme F / 11 SEF 194
39 DURAND ISABELLE 01:04:59 V1F BNA F 19eme F / 5 V1F 768
40 Vencatareddy Eliot 01:06:27 JUM OUESTRAIL M 9 JUM 760
41 BOUTET SUZETTE 01:06:29 V1F DENIV F 20eme F / 6 V1F 238
42 VOLSAN Elodie 01:06:29 SEF - F 21eme F / 12 SEF 679
43 LALLEMAND EMILIE 01:07:06 SEF DENIV F 22eme F / 13 SEF 246
44 DEMOUSTIER LAURA 01:08:02 JUF CSSDA F 23eme F / 1 JUF 231
45 VIRASSAMY FLORE 01:08:11 V1F DA F 24eme F / 7 V1F 273
46 GAILLARD JULIA 01:08:11 SEF ACSP F 25eme F / 14 SEF 31
47 FAUS LLOPIS CELIA 01:08:13 SEF DA F 26eme F / 15 SEF 263
48 TIN SANG BENOIT 01:08:59 CAM - M 13 CAM 661
49 DAVID HELENE 01:09:21 V1F DENIV F 27eme F / 8 V1F 240
50 LECA ISABELLE 01:10:45 V1F DENIV F 28eme F / 9 V1F 249
51 HOARAU VINCENSINI PASCALE 01:11:14 V1F - F 29eme F / 10 V1F 496
52 DEBEUX SANDRA 01:11:51 V1F CAPOSS F 30eme F / 11 V1F 136
53 SIDAMABAROMPOULE MONIKA 01:12:32 V1F DENIV F 31eme F / 12 V1F 256
54 BOUTIN SOLENE 01:12:44 CAF OUESTRAIL F 32eme F / 2 CAF 279
55 FONTAINE CHRISTIANE 01:12:49 V2F BNA F 33eme F / 2 V2F 84
56 HOARAU MARIE THERESE 01:13:25 V3F CASL F 34eme F / 2 V3F 191
57 GRONDIN MARIE DENISE 01:13:46 V1F CAPP F 35eme F / 13 V1F 110
58 ETHEVE EVA 01:13:47 CAF CASL F 36eme F / 3 CAF 183
59 MARIANNE Emmanelle 01:14:40 JUF - F 37eme F / 2 JUF 558
60 TAURINES CLAIRE 01:14:52 ESF ACSP F 38eme F / 1 ESF 52
61 CHAGNAUD ANGELIQUE 01:15:05 V1F - F 39eme F / 14 V1F 407
62 FOUCQUE MESSALINE 01:15:14 ESF RCSD F 40eme F / 2 ESF 723
63 ETHEVE VALERIE 01:15:15 V1F CASL F 41eme F / 15 V1F 184
64 NIFLORE MARIE BENEDICTE 01:16:12 SEF BNA F 42eme F / 16 SEF 100
65 XXXX XXX 01:16:17 326
66 BASQUAISE sophie 01:16:20 V1F - F 43eme F / 16 V1F 371
67 Trendel Emmanuelle 01:16:36 V1F CASL F 44eme F / 17 V1F 206
68 ROBERT ROSELYNE 01:18:12 V2F AC ENTENTE F 45eme F / 3 V2F 14
69 CADARSI ISABELLE 01:19:02 V1F USPGA F 46eme F / 18 V1F 346
70 CONTAU MARIE NICAISE 01:19:29 V3F ACSTB F 47eme F / 3 V3F 16
71 TAILE JASMINE 01:19:56 SEF ACSP F 48eme F / 17 SEF 51
72 ALEF ANGELIQUE 01:20:37 SEF - F 49eme F / 18 SEF 357
73 PAYET VIRGINIE 01:21:12 SEF ACSGS F 50eme F / 19 SEF 23
74 DI PAOLA PAULINE 01:21:56 JUF OUESTRAIL F 51eme F / 3 JUF 282
75 HOUPIARPANIN MARIE RENEE 01:22:23 V2F ACSP F 52eme F / 4 V2F 36
76 FERREIRA Aline 01:22:54 SEF - F 53eme F / 20 SEF 457
77 MOUTAMAN SEVAGAMY ANNIE CLAUDE 01:23:49 V1F - F 54eme F / 19 V1F 715
78 MULOT ANNIE 01:23:59 V1F CAPOSS F 55eme F / 20 V1F 157
79 MAITRIAS AMANDINE 01:24:06 V1F CAPOSS F 56eme F / 21 V1F 154
80 DESMIDT ELODIE 01:24:12 ESF - F 57eme F / 3 ESF 435
81 Lartigue Auriane 01:25:02 CAF CASL F 58eme F / 4 CAF 205
82 NIRLO GABRIELLE 01:26:37 CAF BNA F 59eme F / 5 CAF 102
83 RAMAYE SABINE 01:26:58 SEF CAPOSS F 60eme F / 21 SEF 165
84 MAILLOT EVA 01:26:59 SEF - F 61eme F / 22 SEF 549
85 TURPIN Elsa 01:29:38 SEF - F 62eme F / 23 SEF 667
86 MAURICOUT Pierre 01:31:21 SEM - M 2 SEM 568
87 BOYER Estelle 01:32:39 CAF - F 63eme F / 6 CAF 391
88 MANIECA christelle 01:34:51 SEF - F 64eme F / 24 SEF 553
89 COURDAL YASMINA 01:35:08 V1F BNA F 65eme F / 22 V1F 80
90 JAURES NELCIE 01:35:35 V1F AC ENTENTE F 66eme F / 23 V1F 9
91 HOARAU NATHALIE 01:36:41 V1F - F 67eme F / 24 V1F 492
92 MYRTHO JULINE 01:38:53 V1F - F 68eme F / 25 V1F 588
93 HAZEBROUCK MARIE 01:39:22 V1F CAPOSS F 69eme F / 26 V1F 143
94 LUCAS MYRIAM YOLANDE 01:39:27 V2F - F 70eme F / 5 V2F 541
95 MARTIAL SOPHIE 01:39:46 V1F CAPOSS F 71eme F / 27 V1F 156
96 BERMUDEZ Alexandre 01:40:25 SEM - M 3 SEM 378
97 KIANG FAT Marina 01:40:36 SEF - F 72eme F / 25 SEF 508
98 HOLZAPFEL BRIGITTE 01:41:53 V2F CAPOSS F 73eme F / 6 V2F 144
99 MICHEL MARIE ROSE 01:45:10 V3F - F 74eme F / 4 V3F 575
100 SILBERSTEIN VIRGINIE 01:45:17 SEF - F 75eme F / 26 SEF 650
101 AGATHE AUDREY 01:46:30 SEF CAPOSS F 76eme F / 27 SEF 708
102 TRENGA stephanie 01:49:01 V1F - F 77eme F / 28 V1F 666
103 Dagard J.pascal 01:55:58 V2M - M 1 V2M 763
104 REGNIER NATAHALIE 01:56:10 V1F CAPOSS F 78eme F / 29 V1F 700
105 LE GUENNEC JUSTINE 02:30:58 SEF OUESTRAIL F 79eme F / 28 SEF 525
106 FONTAINE FABIOLA 02:36:59 V1F - F 80eme F / 30 V1F 458
107 VIVES SYLVIE 02:42:22 V1F - F 81eme F / 31 V1F 678


ReferencementCe site est listé dans la catégorie Sport : Sports extrêmes Dictionnaire
| Accueil | La Réunion  Vue du ciel | Météo | Cyclones | Volcan | Cirques de Mafate , Cilaos , Salazie | Photos Randonnées | Randonnées Réunion: Randos Espiègle , Courses montagne | Diagonale des Fous |  Marathon des Sables | Voyages Les stats du site | Fonds écran | Plan du site | Blog de runraid | Galerie photos Sport Réunion |